sensor_id;sensor_type;location;lat;lon;timestamp;P1;durP1;ratioP1;P2;durP2;ratioP2
15567;SDS011;7885;42.596;23.044;2023-03-03T00:01:00;7.83;;;6.20;;
15567;SDS011;7885;42.596;23.044;2023-03-03T00:03:26;11.73;;;7.60;;
15567;SDS011;7885;42.596;23.044;2023-03-03T00:05:54;10.17;;;6.40;;
15567;SDS011;7885;42.596;23.044;2023-03-03T00:08:21;13.27;;;7.30;;
15567;SDS011;7885;42.596;23.044;2023-03-03T00:10:48;21.97;;;10.27;;
15567;SDS011;7885;42.596;23.044;2023-03-03T00:23:27;21.17;;;11.53;;
15567;SDS011;7885;42.596;23.044;2023-03-03T00:25:56;19.00;;;10.97;;
15567;SDS011;7885;42.596;23.044;2023-03-03T00:28:25;17.83;;;11.37;;
15567;SDS011;7885;42.596;23.044;2023-03-03T00:30:55;15.73;;;9.87;;
15567;SDS011;7885;42.596;23.044;2023-03-03T00:33:25;15.13;;;10.40;;
15567;SDS011;7885;42.596;23.044;2023-03-03T00:35:56;15.87;;;11.10;;
15567;SDS011;7885;42.596;23.044;2023-03-03T00:38:36;12.70;;;9.67;;
15567;SDS011;7885;42.596;23.044;2023-03-03T00:41:03;11.53;;;9.60;;
15567;SDS011;7885;42.596;23.044;2023-03-03T00:43:41;12.77;;;9.00;;
15567;SDS011;7885;42.596;23.044;2023-03-03T00:46:08;10.60;;;9.30;;
15567;SDS011;7885;42.596;23.044;2023-03-03T00:48:40;13.53;;;9.10;;
15567;SDS011;7885;42.596;23.044;2023-03-03T00:51:12;12.43;;;9.47;;
15567;SDS011;7885;42.596;23.044;2023-03-03T00:53:52;10.23;;;8.73;;
15567;SDS011;7885;42.596;23.044;2023-03-03T00:56:19;9.60;;;7.60;;
15567;SDS011;7885;42.596;23.044;2023-03-03T00:58:46;7.73;;;6.93;;
15567;SDS011;7885;42.596;23.044;2023-03-03T01:01:13;8.00;;;7.20;;
15567;SDS011;7885;42.596;23.044;2023-03-03T01:03:40;8.60;;;7.20;;
15567;SDS011;7885;42.596;23.044;2023-03-03T01:06:08;8.50;;;7.17;;
15567;SDS011;7885;42.596;23.044;2023-03-03T01:08:36;7.57;;;6.77;;
15567;SDS011;7885;42.596;23.044;2023-03-03T01:11:04;8.57;;;7.00;;
15567;SDS011;7885;42.596;23.044;2023-03-03T01:13:34;7.20;;;6.50;;
15567;SDS011;7885;42.596;23.044;2023-03-03T01:16:02;7.53;;;6.73;;
15567;SDS011;7885;42.596;23.044;2023-03-03T01:18:30;8.83;;;6.80;;
15567;SDS011;7885;42.596;23.044;2023-03-03T01:20:57;8.60;;;6.30;;
15567;SDS011;7885;42.596;23.044;2023-03-03T01:23:24;6.70;;;6.03;;
15567;SDS011;7885;42.596;23.044;2023-03-03T01:25:50;9.17;;;8.13;;
15567;SDS011;7885;42.596;23.044;2023-03-03T01:28:18;7.03;;;6.33;;
15567;SDS011;7885;42.596;23.044;2023-03-03T01:30:45;8.77;;;7.87;;
15567;SDS011;7885;42.596;23.044;2023-03-03T01:33:12;6.73;;;6.03;;
15567;SDS011;7885;42.596;23.044;2023-03-03T01:35:42;6.90;;;6.20;;
15567;SDS011;7885;42.596;23.044;2023-03-03T01:38:10;8.30;;;7.17;;
15567;SDS011;7885;42.596;23.044;2023-03-03T01:40:36;8.53;;;7.63;;
15567;SDS011;7885;42.596;23.044;2023-03-03T01:43:03;8.83;;;7.93;;
15567;SDS011;7885;42.596;23.044;2023-03-03T01:45:36;11.30;;;8.33;;
15567;SDS011;7885;42.596;23.044;2023-03-03T01:48:12;9.70;;;8.70;;
15567;SDS011;7885;42.596;23.044;2023-03-03T01:50:42;10.57;;;8.43;;
15567;SDS011;7885;42.596;23.044;2023-03-03T01:53:16;11.10;;;9.20;;
15567;SDS011;7885;42.596;23.044;2023-03-03T01:55:45;14.13;;;11.70;;
15567;SDS011;7885;42.596;23.044;2023-03-03T01:58:15;13.97;;;9.53;;
15567;SDS011;7885;42.596;23.044;2023-03-03T02:00:49;12.23;;;10.07;;
15567;SDS011;7885;42.596;23.044;2023-03-03T02:03:18;13.83;;;9.50;;
15567;SDS011;7885;42.596;23.044;2023-03-03T02:05:47;11.60;;;9.23;;
15567;SDS011;7885;42.596;23.044;2023-03-03T02:08:17;14.97;;;9.70;;
15567;SDS011;7885;42.596;23.044;2023-03-03T02:10:46;12.70;;;9.90;;
15567;SDS011;7885;42.596;23.044;2023-03-03T02:13:14;10.63;;;9.30;;
15567;SDS011;7885;42.596;23.044;2023-03-03T02:15:40;10.53;;;9.10;;
15567;SDS011;7885;42.596;23.044;2023-03-03T02:18:10;14.07;;;10.43;;
15567;SDS011;7885;42.596;23.044;2023-03-03T02:20:42;12.03;;;9.73;;
15567;SDS011;7885;42.596;23.044;2023-03-03T02:23:17;10.33;;;9.33;;
15567;SDS011;7885;42.596;23.044;2023-03-03T02:25:49;10.87;;;9.43;;
15567;SDS011;7885;42.596;23.044;2023-03-03T02:28:21;12.23;;;9.43;;
15567;SDS011;7885;42.596;23.044;2023-03-03T02:30:52;11.27;;;9.20;;
15567;SDS011;7885;42.596;23.044;2023-03-03T02:33:20;10.63;;;9.33;;
15567;SDS011;7885;42.596;23.044;2023-03-03T02:35:47;10.43;;;9.33;;
15567;SDS011;7885;42.596;23.044;2023-03-03T02:38:16;11.33;;;9.73;;
15567;SDS011;7885;42.596;23.044;2023-03-03T02:40:49;11.87;;;9.77;;
15567;SDS011;7885;42.596;23.044;2023-03-03T02:43:28;13.67;;;10.80;;
15567;SDS011;7885;42.596;23.044;2023-03-03T02:46:02;10.90;;;9.80;;
15567;SDS011;7885;42.596;23.044;2023-03-03T02:48:29;10.10;;;9.00;;
15567;SDS011;7885;42.596;23.044;2023-03-03T02:50:55;10.40;;;9.00;;
15567;SDS011;7885;42.596;23.044;2023-03-03T02:53:22;12.13;;;9.73;;
15567;SDS011;7885;42.596;23.044;2023-03-03T02:55:49;11.30;;;10.10;;
15567;SDS011;7885;42.596;23.044;2023-03-03T02:58:15;11.43;;;9.77;;
15567;SDS011;7885;42.596;23.044;2023-03-03T03:00:43;11.57;;;10.00;;
15567;SDS011;7885;42.596;23.044;2023-03-03T03:03:11;14.90;;;10.60;;
15567;SDS011;7885;42.596;23.044;2023-03-03T03:05:38;13.70;;;9.87;;
15567;SDS011;7885;42.596;23.044;2023-03-03T03:08:05;12.37;;;10.60;;
15567;SDS011;7885;42.596;23.044;2023-03-03T03:10:32;12.90;;;10.03;;
15567;SDS011;7885;42.596;23.044;2023-03-03T03:12:58;13.97;;;10.23;;
15567;SDS011;7885;42.596;23.044;2023-03-03T03:15:25;17.40;;;11.33;;
15567;SDS011;7885;42.596;23.044;2023-03-03T03:17:53;13.40;;;11.30;;
15567;SDS011;7885;42.596;23.044;2023-03-03T03:20:20;14.97;;;11.57;;
15567;SDS011;7885;42.596;23.044;2023-03-03T03:22:47;16.30;;;12.73;;
15567;SDS011;7885;42.596;23.044;2023-03-03T03:25:14;14.73;;;11.97;;
15567;SDS011;7885;42.596;23.044;2023-03-03T03:27:40;14.80;;;12.00;;
15567;SDS011;7885;42.596;23.044;2023-03-03T03:30:07;15.97;;;11.93;;
15567;SDS011;7885;42.596;23.044;2023-03-03T03:32:35;17.23;;;11.97;;
15567;SDS011;7885;42.596;23.044;2023-03-03T03:35:03;15.13;;;11.00;;
15567;SDS011;7885;42.596;23.044;2023-03-03T03:37:30;15.33;;;11.17;;
15567;SDS011;7885;42.596;23.044;2023-03-03T03:39:57;12.03;;;10.63;;
15567;SDS011;7885;42.596;23.044;2023-03-03T03:45:09;16.73;;;11.93;;
15567;SDS011;7885;42.596;23.044;2023-03-03T03:47:39;17.20;;;12.40;;
15567;SDS011;7885;42.596;23.044;2023-03-03T03:50:08;17.67;;;11.50;;
15567;SDS011;7885;42.596;23.044;2023-03-03T03:52:36;13.67;;;11.17;;
15567;SDS011;7885;42.596;23.044;2023-03-03T03:55:03;13.10;;;11.40;;
15567;SDS011;7885;42.596;23.044;2023-03-03T03:57:31;14.57;;;11.40;;
15567;SDS011;7885;42.596;23.044;2023-03-03T03:59:58;15.07;;;11.43;;
15567;SDS011;7885;42.596;23.044;2023-03-03T04:02:24;17.40;;;11.27;;
15567;SDS011;7885;42.596;23.044;2023-03-03T04:04:51;14.90;;;11.53;;
15567;SDS011;7885;42.596;23.044;2023-03-03T04:07:19;13.20;;;11.30;;
15567;SDS011;7885;42.596;23.044;2023-03-03T04:09:46;15.03;;;11.27;;
15567;SDS011;7885;42.596;23.044;2023-03-03T04:12:13;32.27;;;17.83;;
15567;SDS011;7885;42.596;23.044;2023-03-03T04:14:39;17.53;;;12.30;;
15567;SDS011;7885;42.596;23.044;2023-03-03T04:17:06;16.33;;;14.53;;
15567;SDS011;7885;42.596;23.044;2023-03-03T04:19:33;17.10;;;14.07;;
15567;SDS011;7885;42.596;23.044;2023-03-03T04:21:59;18.37;;;14.20;;
15567;SDS011;7885;42.596;23.044;2023-03-03T04:24:27;22.20;;;16.30;;
15567;SDS011;7885;42.596;23.044;2023-03-03T04:26:54;23.57;;;18.10;;
15567;SDS011;7885;42.596;23.044;2023-03-03T04:29:21;12.77;;;10.40;;
15567;SDS011;7885;42.596;23.044;2023-03-03T04:31:47;12.70;;;10.60;;
15567;SDS011;7885;42.596;23.044;2023-03-03T04:34:14;12.73;;;9.70;;
15567;SDS011;7885;42.596;23.044;2023-03-03T04:36:41;11.47;;;10.03;;
15567;SDS011;7885;42.596;23.044;2023-03-03T04:39:08;13.27;;;10.13;;
15567;SDS011;7885;42.596;23.044;2023-03-03T04:41:36;11.33;;;9.73;;
15567;SDS011;7885;42.596;23.044;2023-03-03T04:44:02;10.47;;;8.37;;
15567;SDS011;7885;42.596;23.044;2023-03-03T04:46:29;9.53;;;8.53;;
15567;SDS011;7885;42.596;23.044;2023-03-03T04:48:56;11.57;;;9.30;;
15567;SDS011;7885;42.596;23.044;2023-03-03T04:51:22;11.13;;;9.50;;
15567;SDS011;7885;42.596;23.044;2023-03-03T04:53:49;11.90;;;9.27;;
15567;SDS011;7885;42.596;23.044;2023-03-03T04:56:16;11.27;;;9.13;;
15567;SDS011;7885;42.596;23.044;2023-03-03T04:58:44;11.77;;;10.17;;
15567;SDS011;7885;42.596;23.044;2023-03-03T05:01:11;13.43;;;11.10;;
15567;SDS011;7885;42.596;23.044;2023-03-03T05:03:38;11.97;;;10.50;;
15567;SDS011;7885;42.596;23.044;2023-03-03T05:09:27;11.70;;;10.20;;
15567;SDS011;7885;42.596;23.044;2023-03-03T05:11:54;12.17;;;9.87;;
15567;SDS011;7885;42.596;23.044;2023-03-03T05:14:22;13.60;;;12.17;;
15567;SDS011;7885;42.596;23.044;2023-03-03T05:16:48;14.87;;;11.90;;
15567;SDS011;7885;42.596;23.044;2023-03-03T05:19:15;14.53;;;11.50;;
15567;SDS011;7885;42.596;23.044;2023-03-03T05:21:42;16.57;;;12.50;;
15567;SDS011;7885;42.596;23.044;2023-03-03T05:24:09;13.87;;;11.77;;
15567;SDS011;7885;42.596;23.044;2023-03-03T05:26:36;14.47;;;12.10;;
15567;SDS011;7885;42.596;23.044;2023-03-03T05:29:03;14.50;;;13.03;;
15567;SDS011;7885;42.596;23.044;2023-03-03T05:31:32;15.03;;;13.20;;
15567;SDS011;7885;42.596;23.044;2023-03-03T05:33:59;15.90;;;14.10;;
15567;SDS011;7885;42.596;23.044;2023-03-03T05:36:26;17.03;;;14.67;;
15567;SDS011;7885;42.596;23.044;2023-03-03T05:38:53;16.50;;;12.73;;
15567;SDS011;7885;42.596;23.044;2023-03-03T05:41:19;13.67;;;11.93;;
15567;SDS011;7885;42.596;23.044;2023-03-03T05:43:46;19.20;;;14.40;;
15567;SDS011;7885;42.596;23.044;2023-03-03T05:46:13;15.47;;;13.83;;
15567;SDS011;7885;42.596;23.044;2023-03-03T05:48:41;16.30;;;13.10;;
15567;SDS011;7885;42.596;23.044;2023-03-03T05:51:07;17.60;;;14.97;;
15567;SDS011;7885;42.596;23.044;2023-03-03T05:53:34;17.00;;;15.20;;
15567;SDS011;7885;42.596;23.044;2023-03-03T05:56:01;17.77;;;15.13;;
15567;SDS011;7885;42.596;23.044;2023-03-03T05:58:28;13.70;;;12.30;;
15567;SDS011;7885;42.596;23.044;2023-03-03T06:00:55;13.30;;;11.93;;
15567;SDS011;7885;42.596;23.044;2023-03-03T06:03:21;14.77;;;13.20;;
15567;SDS011;7885;42.596;23.044;2023-03-03T06:05:49;14.90;;;13.50;;
15567;SDS011;7885;42.596;23.044;2023-03-03T06:08:16;15.37;;;13.77;;
15567;SDS011;7885;42.596;23.044;2023-03-03T06:10:43;17.77;;;15.87;;
15567;SDS011;7885;42.596;23.044;2023-03-03T06:13:10;18.33;;;15.77;;
15567;SDS011;7885;42.596;23.044;2023-03-03T06:15:37;17.53;;;15.13;;
15567;SDS011;7885;42.596;23.044;2023-03-03T06:18:03;14.90;;;12.83;;
15567;SDS011;7885;42.596;23.044;2023-03-03T06:20:30;20.50;;;17.33;;
15567;SDS011;7885;42.596;23.044;2023-03-03T06:22:58;18.73;;;16.57;;
15567;SDS011;7885;42.596;23.044;2023-03-03T06:25:25;19.40;;;16.37;;
15567;SDS011;7885;42.596;23.044;2023-03-03T06:27:52;17.77;;;15.83;;
15567;SDS011;7885;42.596;23.044;2023-03-03T06:30:19;18.23;;;16.17;;
15567;SDS011;7885;42.596;23.044;2023-03-03T06:32:45;18.83;;;16.87;;
15567;SDS011;7885;42.596;23.044;2023-03-03T06:38:35;17.33;;;15.40;;
15567;SDS011;7885;42.596;23.044;2023-03-03T06:41:02;17.83;;;15.93;;
15567;SDS011;7885;42.596;23.044;2023-03-03T06:43:31;15.63;;;14.03;;
15567;SDS011;7885;42.596;23.044;2023-03-03T06:45:58;16.37;;;14.70;;
15567;SDS011;7885;42.596;23.044;2023-03-03T06:48:25;17.67;;;15.87;;
15567;SDS011;7885;42.596;23.044;2023-03-03T06:50:54;17.03;;;15.30;;
15567;SDS011;7885;42.596;23.044;2023-03-03T06:53:21;26.23;;;22.33;;
15567;SDS011;7885;42.596;23.044;2023-03-03T06:55:49;27.50;;;24.50;;
15567;SDS011;7885;42.596;23.044;2023-03-03T07:04:59;21.83;;;19.63;;
15567;SDS011;7885;42.596;23.044;2023-03-03T07:07:26;25.97;;;22.03;;
15567;SDS011;7885;42.596;23.044;2023-03-03T07:09:54;27.50;;;23.83;;
15567;SDS011;7885;42.596;23.044;2023-03-03T07:12:24;27.47;;;23.83;;
15567;SDS011;7885;42.596;23.044;2023-03-03T07:14:55;36.33;;;29.07;;
15567;SDS011;7885;42.596;23.044;2023-03-03T07:17:27;22.90;;;19.20;;
15567;SDS011;7885;42.596;23.044;2023-03-03T07:19:53;12.83;;;11.57;;
15567;SDS011;7885;42.596;23.044;2023-03-03T07:22:21;17.23;;;15.43;;
15567;SDS011;7885;42.596;23.044;2023-03-03T07:24:51;18.60;;;16.53;;
15567;SDS011;7885;42.596;23.044;2023-03-03T07:27:23;17.97;;;16.17;;
15567;SDS011;7885;42.596;23.044;2023-03-03T07:29:52;19.87;;;17.57;;
15567;SDS011;7885;42.596;23.044;2023-03-03T07:32:21;15.40;;;13.97;;
15567;SDS011;7885;42.596;23.044;2023-03-03T07:34:51;15.80;;;14.20;;
15567;SDS011;7885;42.596;23.044;2023-03-03T07:40:41;15.87;;;14.27;;
15567;SDS011;7885;42.596;23.044;2023-03-03T07:43:18;17.63;;;15.83;;
15567;SDS011;7885;42.596;23.044;2023-03-03T07:45:55;18.63;;;16.73;;
15567;SDS011;7885;42.596;23.044;2023-03-03T07:48:29;22.47;;;20.17;;
15567;SDS011;7885;42.596;23.044;2023-03-03T07:51:01;22.47;;;20.13;;
15567;SDS011;7885;42.596;23.044;2023-03-03T07:53:33;22.33;;;19.63;;
15567;SDS011;7885;42.596;23.044;2023-03-03T07:56:02;27.33;;;24.40;;
15567;SDS011;7885;42.596;23.044;2023-03-03T07:58:42;24.53;;;21.90;;
15567;SDS011;7885;42.596;23.044;2023-03-03T08:04:17;20.07;;;17.97;;
15567;SDS011;7885;42.596;23.044;2023-03-03T08:06:48;22.90;;;20.60;;
15567;SDS011;7885;42.596;23.044;2023-03-03T08:12:28;27.07;;;22.93;;
15567;SDS011;7885;42.596;23.044;2023-03-03T08:15:20;41.43;;;29.00;;
15567;SDS011;7885;42.596;23.044;2023-03-03T08:17:50;23.97;;;20.90;;
15567;SDS011;7885;42.596;23.044;2023-03-03T08:23:20;20.77;;;18.57;;
15567;SDS011;7885;42.596;23.044;2023-03-03T08:25:47;21.40;;;19.13;;
15567;SDS011;7885;42.596;23.044;2023-03-03T08:28:15;17.80;;;15.90;;
15567;SDS011;7885;42.596;23.044;2023-03-03T08:30:44;18.73;;;16.73;;
15567;SDS011;7885;42.596;23.044;2023-03-03T08:33:11;16.73;;;14.90;;
15567;SDS011;7885;42.596;23.044;2023-03-03T08:35:38;16.93;;;15.13;;
15567;SDS011;7885;42.596;23.044;2023-03-03T08:38:06;17.67;;;15.83;;
15567;SDS011;7885;42.596;23.044;2023-03-03T08:40:33;17.90;;;15.77;;
15567;SDS011;7885;42.596;23.044;2023-03-03T08:43:00;18.17;;;16.37;;
15567;SDS011;7885;42.596;23.044;2023-03-03T08:45:27;18.40;;;16.50;;
15567;SDS011;7885;42.596;23.044;2023-03-03T08:47:56;17.70;;;15.90;;
15567;SDS011;7885;42.596;23.044;2023-03-03T08:50:24;19.00;;;17.10;;
15567;SDS011;7885;42.596;23.044;2023-03-03T08:52:50;19.07;;;16.97;;
15567;SDS011;7885;42.596;23.044;2023-03-03T08:55:17;16.57;;;14.97;;
15567;SDS011;7885;42.596;23.044;2023-03-03T08:57:44;15.70;;;14.20;;
15567;SDS011;7885;42.596;23.044;2023-03-03T09:00:11;16.83;;;15.07;;
15567;SDS011;7885;42.596;23.044;2023-03-03T09:02:41;15.93;;;14.13;;
15567;SDS011;7885;42.596;23.044;2023-03-03T09:05:10;17.77;;;15.90;;
15567;SDS011;7885;42.596;23.044;2023-03-03T09:07:37;20.00;;;17.90;;
15567;SDS011;7885;42.596;23.044;2023-03-03T09:10:05;18.87;;;16.93;;
15567;SDS011;7885;42.596;23.044;2023-03-03T09:12:32;15.40;;;13.93;;
15567;SDS011;7885;42.596;23.044;2023-03-03T09:15:06;15.00;;;13.53;;
15567;SDS011;7885;42.596;23.044;2023-03-03T09:17:40;15.63;;;13.57;;
15567;SDS011;7885;42.596;23.044;2023-03-03T09:20:21;13.53;;;12.13;;
15567;SDS011;7885;42.596;23.044;2023-03-03T09:22:55;15.37;;;13.63;;
15567;SDS011;7885;42.596;23.044;2023-03-03T09:25:25;16.77;;;14.93;;
15567;SDS011;7885;42.596;23.044;2023-03-03T09:27:57;12.37;;;11.17;;
15567;SDS011;7885;42.596;23.044;2023-03-03T09:30:35;14.87;;;13.30;;
15567;SDS011;7885;42.596;23.044;2023-03-03T09:33:18;11.43;;;10.33;;
15567;SDS011;7885;42.596;23.044;2023-03-03T09:35:51;12.30;;;10.87;;
15567;SDS011;7885;42.596;23.044;2023-03-03T09:38:24;15.40;;;13.43;;
15567;SDS011;7885;42.596;23.044;2023-03-03T09:44:11;12.13;;;10.93;;
15567;SDS011;7885;42.596;23.044;2023-03-03T09:47:02;11.23;;;10.07;;
15567;SDS011;7885;42.596;23.044;2023-03-03T09:49:41;10.53;;;9.40;;
15567;SDS011;7885;42.596;23.044;2023-03-03T09:52:23;11.37;;;10.27;;
15567;SDS011;7885;42.596;23.044;2023-03-03T09:55:01;12.63;;;11.43;;
15567;SDS011;7885;42.596;23.044;2023-03-03T09:57:45;12.30;;;10.50;;
15567;SDS011;7885;42.596;23.044;2023-03-03T10:00:27;8.43;;;7.63;;
15567;SDS011;7885;42.596;23.044;2023-03-03T10:03:23;6.60;;;6.00;;
15567;SDS011;7885;42.596;23.044;2023-03-03T10:06:11;11.83;;;10.53;;
15567;SDS011;7885;42.596;23.044;2023-03-03T10:08:49;11.70;;;9.70;;
15567;SDS011;7885;42.596;23.044;2023-03-03T10:11:23;11.73;;;10.63;;
15567;SDS011;7885;42.596;23.044;2023-03-03T10:14:03;11.27;;;10.20;;
15567;SDS011;7885;42.596;23.044;2023-03-03T10:16:45;7.80;;;7.10;;
15567;SDS011;7885;42.596;23.044;2023-03-03T10:19:27;6.70;;;6.10;;
15567;SDS011;7885;42.596;23.044;2023-03-03T10:22:03;7.97;;;7.27;;
15567;SDS011;7885;42.596;23.044;2023-03-03T10:24:45;8.80;;;7.70;;
15567;SDS011;7885;42.596;23.044;2023-03-03T10:27:28;7.33;;;6.63;;
15567;SDS011;7885;42.596;23.044;2023-03-03T10:30:10;14.30;;;12.17;;
15567;SDS011;7885;42.596;23.044;2023-03-03T10:32:45;10.83;;;9.73;;
15567;SDS011;7885;42.596;23.044;2023-03-03T10:38:11;11.37;;;10.27;;
15567;SDS011;7885;42.596;23.044;2023-03-03T10:40:49;10.20;;;9.20;;
15567;SDS011;7885;42.596;23.044;2023-03-03T10:43:27;9.00;;;8.20;;
15567;SDS011;7885;42.596;23.044;2023-03-03T10:51:55;23.37;;;19.33;;
15567;SDS011;7885;42.596;23.044;2023-03-03T10:54:38;11.50;;;10.30;;
15567;SDS011;7885;42.596;23.044;2023-03-03T10:57:20;12.07;;;9.73;;
15567;SDS011;7885;42.596;23.044;2023-03-03T11:00:00;16.13;;;13.27;;
15567;SDS011;7885;42.596;23.044;2023-03-03T11:02:42;16.97;;;13.17;;
15567;SDS011;7885;42.596;23.044;2023-03-03T11:05:21;8.70;;;7.80;;
15567;SDS011;7885;42.596;23.044;2023-03-03T11:07:55;10.03;;;9.03;;
15567;SDS011;7885;42.596;23.044;2023-03-03T11:10:29;14.63;;;12.53;;
15567;SDS011;7885;42.596;23.044;2023-03-03T11:13:12;15.40;;;13.90;;
15567;SDS011;7885;42.596;23.044;2023-03-03T11:15:47;10.80;;;9.70;;
15567;SDS011;7885;42.596;23.044;2023-03-03T11:18:36;16.27;;;14.70;;
15567;SDS011;7885;42.596;23.044;2023-03-03T11:21:18;12.17;;;10.73;;
15567;SDS011;7885;42.596;23.044;2023-03-03T11:24:00;8.40;;;7.50;;
15567;SDS011;7885;42.596;23.044;2023-03-03T11:26:39;10.10;;;8.97;;
15567;SDS011;7885;42.596;23.044;2023-03-03T11:32:39;29.80;;;24.13;;
15567;SDS011;7885;42.596;23.044;2023-03-03T11:35:17;15.90;;;13.97;;
15567;SDS011;7885;42.596;23.044;2023-03-03T11:37:49;12.43;;;11.23;;
15567;SDS011;7885;42.596;23.044;2023-03-03T11:40:25;10.47;;;9.37;;
15567;SDS011;7885;42.596;23.044;2023-03-03T11:42:58;10.37;;;9.47;;
15567;SDS011;7885;42.596;23.044;2023-03-03T11:45:30;12.80;;;11.50;;
15567;SDS011;7885;42.596;23.044;2023-03-03T11:48:06;14.47;;;12.97;;
15567;SDS011;7885;42.596;23.044;2023-03-03T11:50:42;13.77;;;12.20;;
15567;SDS011;7885;42.596;23.044;2023-03-03T11:53:23;19.10;;;16.00;;
15567;SDS011;7885;42.596;23.044;2023-03-03T11:55:55;16.17;;;14.47;;
15567;SDS011;7885;42.596;23.044;2023-03-03T11:58:25;8.40;;;7.60;;
15567;SDS011;7885;42.596;23.044;2023-03-03T12:00:56;12.57;;;11.33;;
15567;SDS011;7885;42.596;23.044;2023-03-03T12:03:35;21.03;;;16.77;;
15567;SDS011;7885;42.596;23.044;2023-03-03T12:06:16;14.70;;;13.13;;
15567;SDS011;7885;42.596;23.044;2023-03-03T12:09:00;13.63;;;12.27;;
15567;SDS011;7885;42.596;23.044;2023-03-03T12:11:33;14.57;;;13.07;;
15567;SDS011;7885;42.596;23.044;2023-03-03T12:14:12;12.20;;;10.87;;
15567;SDS011;7885;42.596;23.044;2023-03-03T12:16:50;13.90;;;12.40;;
15567;SDS011;7885;42.596;23.044;2023-03-03T12:19:26;15.83;;;14.17;;
15567;SDS011;7885;42.596;23.044;2023-03-03T12:22:06;16.47;;;14.67;;
15567;SDS011;7885;42.596;23.044;2023-03-03T12:25:07;20.50;;;16.03;;
15567;SDS011;7885;42.596;23.044;2023-03-03T12:27:44;15.20;;;13.27;;
15567;SDS011;7885;42.596;23.044;2023-03-03T12:30:19;14.20;;;12.80;;
15567;SDS011;7885;42.596;23.044;2023-03-03T12:32:59;12.83;;;11.53;;
15567;SDS011;7885;42.596;23.044;2023-03-03T12:35:42;14.40;;;12.90;;
15567;SDS011;7885;42.596;23.044;2023-03-03T12:38:19;13.80;;;12.40;;
15567;SDS011;7885;42.596;23.044;2023-03-03T12:40:57;13.97;;;12.03;;
15567;SDS011;7885;42.596;23.044;2023-03-03T12:43:39;12.93;;;11.63;;
15567;SDS011;7885;42.596;23.044;2023-03-03T12:46:17;14.00;;;12.47;;
15567;SDS011;7885;42.596;23.044;2023-03-03T12:48:48;14.73;;;13.03;;
15567;SDS011;7885;42.596;23.044;2023-03-03T12:51:19;21.50;;;19.20;;
15567;SDS011;7885;42.596;23.044;2023-03-03T12:54:18;22.97;;;20.03;;
15567;SDS011;7885;42.596;23.044;2023-03-03T12:56:55;14.13;;;12.77;;
15567;SDS011;7885;42.596;23.044;2023-03-03T12:59:28;14.53;;;13.03;;
15567;SDS011;7885;42.596;23.044;2023-03-03T13:02:14;12.27;;;11.17;;
15567;SDS011;7885;42.596;23.044;2023-03-03T13:05:01;11.57;;;10.57;;
15567;SDS011;7885;42.596;23.044;2023-03-03T13:07:38;11.60;;;10.50;;
15567;SDS011;7885;42.596;23.044;2023-03-03T13:10:12;10.57;;;9.57;;
15567;SDS011;7885;42.596;23.044;2023-03-03T13:12:46;11.10;;;10.07;;
15567;SDS011;7885;42.596;23.044;2023-03-03T13:15:19;11.80;;;10.60;;
15567;SDS011;7885;42.596;23.044;2023-03-03T13:17:52;12.10;;;10.53;;
15567;SDS011;7885;42.596;23.044;2023-03-03T13:20:37;11.63;;;10.53;;
15567;SDS011;7885;42.596;23.044;2023-03-03T13:23:12;12.27;;;11.07;;
15567;SDS011;7885;42.596;23.044;2023-03-03T13:25:49;12.33;;;11.20;;
15567;SDS011;7885;42.596;23.044;2023-03-03T13:28:22;12.00;;;10.90;;
15567;SDS011;7885;42.596;23.044;2023-03-03T13:30:57;12.83;;;11.63;;
15567;SDS011;7885;42.596;23.044;2023-03-03T13:33:32;12.97;;;11.77;;
15567;SDS011;7885;42.596;23.044;2023-03-03T13:36:01;12.73;;;11.53;;
15567;SDS011;7885;42.596;23.044;2023-03-03T13:38:33;13.53;;;12.33;;
15567;SDS011;7885;42.596;23.044;2023-03-03T13:41:06;12.73;;;11.50;;
15567;SDS011;7885;42.596;23.044;2023-03-03T13:43:39;13.10;;;11.80;;
15567;SDS011;7885;42.596;23.044;2023-03-03T13:46:13;15.87;;;14.37;;
15567;SDS011;7885;42.596;23.044;2023-03-03T13:48:47;15.97;;;14.47;;
15567;SDS011;7885;42.596;23.044;2023-03-03T13:51:25;16.33;;;14.77;;
15567;SDS011;7885;42.596;23.044;2023-03-03T13:54:03;15.63;;;13.90;;
15567;SDS011;7885;42.596;23.044;2023-03-03T13:56:48;15.73;;;14.03;;
15567;SDS011;7885;42.596;23.044;2023-03-03T13:59:32;16.30;;;14.73;;
15567;SDS011;7885;42.596;23.044;2023-03-03T14:02:09;18.73;;;16.83;;
15567;SDS011;7885;42.596;23.044;2023-03-03T14:05:03;22.60;;;20.13;;
15567;SDS011;7885;42.596;23.044;2023-03-03T14:07:40;20.20;;;18.27;;
15567;SDS011;7885;42.596;23.044;2023-03-03T14:10:12;19.10;;;17.20;;
15567;SDS011;7885;42.596;23.044;2023-03-03T14:12:46;16.90;;;15.20;;
15567;SDS011;7885;42.596;23.044;2023-03-03T14:15:23;17.83;;;16.03;;
15567;SDS011;7885;42.596;23.044;2023-03-03T14:17:59;20.30;;;18.20;;
15567;SDS011;7885;42.596;23.044;2023-03-03T14:20:37;19.57;;;17.53;;
15567;SDS011;7885;42.596;23.044;2023-03-03T14:23:08;20.83;;;18.73;;
15567;SDS011;7885;42.596;23.044;2023-03-03T14:25:51;25.53;;;22.80;;
15567;SDS011;7885;42.596;23.044;2023-03-03T14:28:20;23.43;;;20.93;;
15567;SDS011;7885;42.596;23.044;2023-03-03T14:30:48;28.70;;;25.70;;
15567;SDS011;7885;42.596;23.044;2023-03-03T14:33:22;27.93;;;25.03;;
15567;SDS011;7885;42.596;23.044;2023-03-03T14:36:02;25.20;;;22.63;;
15567;SDS011;7885;42.596;23.044;2023-03-03T14:38:45;30.60;;;27.40;;
15567;SDS011;7885;42.596;23.044;2023-03-03T14:41:18;27.47;;;24.53;;
15567;SDS011;7885;42.596;23.044;2023-03-03T14:49:48;22.77;;;20.07;;
15567;SDS011;7885;42.596;23.044;2023-03-03T14:52:20;26.37;;;23.30;;
15567;SDS011;7885;42.596;23.044;2023-03-03T14:54:50;32.23;;;26.47;;
15567;SDS011;7885;42.596;23.044;2023-03-03T14:57:19;31.60;;;24.60;;
15567;SDS011;7885;42.596;23.044;2023-03-03T14:59:54;28.70;;;24.43;;
15567;SDS011;7885;42.596;23.044;2023-03-03T15:02:29;29.80;;;25.00;;
15567;SDS011;7885;42.596;23.044;2023-03-03T15:07:49;26.50;;;23.63;;
15567;SDS011;7885;42.596;23.044;2023-03-03T15:10:29;25.07;;;22.37;;
15567;SDS011;7885;42.596;23.044;2023-03-03T15:13:23;24.87;;;22.27;;
15567;SDS011;7885;42.596;23.044;2023-03-03T15:16:03;24.73;;;22.13;;
15567;SDS011;7885;42.596;23.044;2023-03-03T15:18:49;25.67;;;22.87;;
15567;SDS011;7885;42.596;23.044;2023-03-03T15:21:25;33.60;;;28.43;;
15567;SDS011;7885;42.596;23.044;2023-03-03T15:23:58;45.43;;;34.77;;
15567;SDS011;7885;42.596;23.044;2023-03-03T15:26:35;35.90;;;30.53;;
15567;SDS011;7885;42.596;23.044;2023-03-03T15:29:12;27.10;;;24.20;;
15567;SDS011;7885;42.596;23.044;2023-03-03T15:31:48;28.57;;;25.40;;
15567;SDS011;7885;42.596;23.044;2023-03-03T15:34:25;31.50;;;27.93;;
15567;SDS011;7885;42.596;23.044;2023-03-03T15:37:03;33.83;;;29.30;;
15567;SDS011;7885;42.596;23.044;2023-03-03T15:39:40;32.77;;;28.93;;
15567;SDS011;7885;42.596;23.044;2023-03-03T15:42:13;33.27;;;29.67;;
15567;SDS011;7885;42.596;23.044;2023-03-03T15:44:50;33.17;;;29.27;;
15567;SDS011;7885;42.596;23.044;2023-03-03T15:47:29;31.37;;;26.80;;
15567;SDS011;7885;42.596;23.044;2023-03-03T15:50:11;34.43;;;28.80;;
15567;SDS011;7885;42.596;23.044;2023-03-03T15:52:47;33.93;;;29.03;;
15567;SDS011;7885;42.596;23.044;2023-03-03T15:55:25;36.20;;;30.90;;
15567;SDS011;7885;42.596;23.044;2023-03-03T15:58:03;25.13;;;21.30;;